createdAt,value
2018-07-11T00:01:08.904Z,2.27
2018-07-11T00:03:49.476Z,2.23
2018-07-11T00:06:19.482Z,2.23
2018-07-11T00:08:47.250Z,2.13
2018-07-11T00:11:16.418Z,2.17
2018-07-11T00:13:45.130Z,2.10
2018-07-11T00:16:13.643Z,2.07
2018-07-11T00:18:41.442Z,2.17
2018-07-11T00:21:09.242Z,2.33
2018-07-11T00:23:37.229Z,2.40
2018-07-11T00:26:06.209Z,1.97
2018-07-11T00:28:34.069Z,2.20
2018-07-11T00:31:01.925Z,2.50
2018-07-11T00:33:30.837Z,1.90
2018-07-11T00:35:58.689Z,2.47
2018-07-11T00:38:26.553Z,2.03
2018-07-11T00:40:54.398Z,2.33
2018-07-11T00:43:22.301Z,2.13
2018-07-11T00:45:50.830Z,2.07
2018-07-11T00:48:18.783Z,2.23
2018-07-11T00:50:46.885Z,2.07
2018-07-11T00:53:14.758Z,2.63
2018-07-11T00:55:43.426Z,2.27
2018-07-11T00:58:25.580Z,2.40
2018-07-11T01:01:06.389Z,2.50
2018-07-11T01:03:37.019Z,2.33
2018-07-11T01:06:04.820Z,2.43
2018-07-11T01:08:34.099Z,2.37
2018-07-11T01:11:06.589Z,2.30
2018-07-11T01:13:34.914Z,2.37
2018-07-11T01:16:02.878Z,2.47
2018-07-11T01:18:31.332Z,2.47
2018-07-11T01:20:59.141Z,2.23
2018-07-11T01:23:26.910Z,2.40
2018-07-11T01:25:54.699Z,2.30
2018-07-11T01:28:22.489Z,2.27
2018-07-11T01:30:50.310Z,2.20
2018-07-11T01:33:18.103Z,2.43
2018-07-11T01:35:45.821Z,2.50
2018-07-11T01:38:13.582Z,2.57
2018-07-11T01:40:41.386Z,2.67
2018-07-11T01:43:09.180Z,2.30
2018-07-11T01:45:36.931Z,2.37
2018-07-11T01:48:04.855Z,2.40
2018-07-11T01:50:32.663Z,2.40
2018-07-11T01:53:00.454Z,2.10
2018-07-11T01:55:28.662Z,2.43
2018-07-11T01:57:59.052Z,2.27
2018-07-11T02:00:27.921Z,2.57
2018-07-11T02:02:55.800Z,1.87
2018-07-11T02:05:24.387Z,2.90
2018-07-11T02:07:53.426Z,2.20
2018-07-11T02:10:21.485Z,2.63
2018-07-11T02:12:49.548Z,2.47
2018-07-11T02:15:18.865Z,2.43
2018-07-11T02:17:46.633Z,2.77
2018-07-11T02:20:16.551Z,2.20
2018-07-11T02:22:46.284Z,2.40
2018-07-11T02:25:15.328Z,2.50
2018-07-11T02:27:43.107Z,2.53
2018-07-11T02:30:11.389Z,2.57
2018-07-11T02:32:39.209Z,2.50
2018-07-11T02:35:07.056Z,2.60
2018-07-11T02:37:34.847Z,2.40
2018-07-11T02:40:02.670Z,2.40
2018-07-11T02:42:30.457Z,2.80
2018-07-11T02:44:59.063Z,2.77
2018-07-11T02:47:32.960Z,2.40
2018-07-11T02:50:00.775Z,2.47
2018-07-11T02:52:28.556Z,2.50
2018-07-11T02:54:56.356Z,2.87
2018-07-11T02:57:24.147Z,2.63
2018-07-11T02:59:51.916Z,2.57
2018-07-11T03:02:19.821Z,2.50
2018-07-11T03:04:47.571Z,2.27
2018-07-11T03:07:15.365Z,2.70
2018-07-11T03:09:43.198Z,2.73
2018-07-11T03:12:10.918Z,2.40
2018-07-11T03:14:44.545Z,2.63
2018-07-11T03:17:12.291Z,2.63
2018-07-11T03:19:40.049Z,2.80
2018-07-11T03:22:07.810Z,2.60
2018-07-11T03:24:35.565Z,2.70
2018-07-11T03:27:04.134Z,2.60
2018-07-11T03:29:31.972Z,2.50
2018-07-11T03:31:59.772Z,2.60
2018-07-11T03:34:27.579Z,2.50
2018-07-11T03:36:55.376Z,2.60
2018-07-11T03:39:23.221Z,2.93
2018-07-11T03:41:50.971Z,2.83
2018-07-11T03:44:18.765Z,2.93
2018-07-11T03:46:46.540Z,3.10
2018-07-11T03:49:14.274Z,3.00
2018-07-11T03:51:42.013Z,3.00
2018-07-11T03:54:09.748Z,2.73
2018-07-11T03:56:37.489Z,3.23
2018-07-11T03:59:05.621Z,2.90
2018-07-11T04:01:33.383Z,3.27
2018-07-11T04:04:01.184Z,2.93
2018-07-11T04:06:28.943Z,3.03
2018-07-11T04:08:56.758Z,3.40
2018-07-11T04:11:24.533Z,3.63
2018-07-11T04:13:52.347Z,3.47
2018-07-11T04:16:20.107Z,2.90
2018-07-11T04:18:47.924Z,3.00
2018-07-11T04:21:16.358Z,3.60
2018-07-11T04:23:44.125Z,2.90
2018-07-11T04:26:12.119Z,3.83
2018-07-11T04:28:40.427Z,3.27
2018-07-11T04:31:08.507Z,3.37
2018-07-11T04:33:36.352Z,3.20
2018-07-11T04:36:04.150Z,3.23
2018-07-11T04:38:31.957Z,3.23
2018-07-11T04:40:59.928Z,3.20
2018-07-11T04:43:27.707Z,2.83
2018-07-11T04:45:55.838Z,3.23
2018-07-11T04:48:23.689Z,3.83
2018-07-11T04:50:51.666Z,3.43
2018-07-11T04:53:24.532Z,3.50
2018-07-11T04:55:57.064Z,3.80
2018-07-11T04:58:25.014Z,3.80
2018-07-11T05:00:52.834Z,3.30
2018-07-11T05:03:20.680Z,3.63
2018-07-11T05:05:48.429Z,4.00
2018-07-11T05:08:16.261Z,3.77
2018-07-11T05:10:44.078Z,3.90
2018-07-11T05:13:11.842Z,3.67
2018-07-11T05:15:39.606Z,4.00
2018-07-11T05:18:07.383Z,3.70
2018-07-11T05:20:35.145Z,4.10
2018-07-11T05:23:03.203Z,3.83
2018-07-11T05:25:31.127Z,4.10
2018-07-11T05:28:00.192Z,3.77
2018-07-11T05:30:28.007Z,3.97
2018-07-11T05:32:55.715Z,4.47
2018-07-11T05:35:23.486Z,4.03
2018-07-11T05:37:51.401Z,3.60
2018-07-11T05:40:19.194Z,4.00
2018-07-11T05:42:47.425Z,3.87
2018-07-11T05:45:15.464Z,3.73
2018-07-11T05:47:44.259Z,3.97
2018-07-11T05:50:12.991Z,4.40
2018-07-11T05:52:40.744Z,4.13
2018-07-11T05:55:08.578Z,4.13
2018-07-11T05:57:36.359Z,4.10
2018-07-11T06:00:04.359Z,3.77
2018-07-11T06:02:32.058Z,3.80
2018-07-11T06:04:59.842Z,3.93
2018-07-11T06:07:27.669Z,3.70
2018-07-11T06:09:55.631Z,4.30
2018-07-11T06:12:23.419Z,3.87
2018-07-11T06:14:51.247Z,4.13
2018-07-11T06:17:19.233Z,4.47
2018-07-11T06:19:46.993Z,4.00
2018-07-11T06:22:14.713Z,4.53
2018-07-11T06:24:42.472Z,3.80
2018-07-11T06:27:10.343Z,3.77
2018-07-11T06:29:38.567Z,5.37
2018-07-11T06:32:06.320Z,3.93
2018-07-11T06:34:34.370Z,4.10
2018-07-11T06:37:02.099Z,3.73
2018-07-11T06:39:29.825Z,3.87
2018-07-11T06:41:58.786Z,3.87
2018-07-11T06:44:27.466Z,3.73
2018-07-11T06:46:55.198Z,3.30
2018-07-11T06:49:22.968Z,4.17
2018-07-11T06:51:51.757Z,3.60
2018-07-11T06:54:19.491Z,3.63
2018-07-11T06:56:47.333Z,4.07
2018-07-11T06:59:15.063Z,3.10
2018-07-11T07:01:42.987Z,3.63
2018-07-11T07:04:10.775Z,3.70
2018-07-11T07:06:38.559Z,3.10
2018-07-11T07:09:06.774Z,3.30
2018-07-11T07:11:34.590Z,2.60
2018-07-11T07:14:02.451Z,2.97
2018-07-11T07:16:30.203Z,2.57
2018-07-11T07:18:58.012Z,2.40
2018-07-11T07:21:26.404Z,2.60
2018-07-11T07:23:54.253Z,2.70
2018-07-11T07:26:22.033Z,2.53
2018-07-11T07:28:50.047Z,2.50
2018-07-11T07:31:17.851Z,2.77
2018-07-11T07:33:45.567Z,2.37
2018-07-11T07:36:13.351Z,2.23
2018-07-11T07:38:42.348Z,2.23
2018-07-11T07:41:10.226Z,1.97
2018-07-11T07:43:38.502Z,2.10
2018-07-11T07:46:06.455Z,2.30
2018-07-11T07:48:34.232Z,2.40
2018-07-11T07:51:01.964Z,2.57
2018-07-11T07:53:30.012Z,2.83
2018-07-11T07:55:57.750Z,2.50
2018-07-11T07:58:25.459Z,2.03
2018-07-11T08:00:53.224Z,2.30
2018-07-11T08:03:21.283Z,4.43
2018-07-11T08:05:49.355Z,2.23
2018-07-11T08:08:17.097Z,2.00
2018-07-11T08:10:44.827Z,1.90
2018-07-11T08:13:12.523Z,2.03
2018-07-11T08:15:40.241Z,1.90
2018-07-11T08:18:07.953Z,1.83
2018-07-11T08:20:35.694Z,1.80
2018-07-11T08:23:23.051Z,1.90
2018-07-11T08:26:08.059Z,1.70
2018-07-11T08:31:01.238Z,2.17
2018-07-11T08:37:53.047Z,2.10
2018-07-11T08:40:38.875Z,2.10
2018-07-11T08:45:30.656Z,1.83
2018-07-11T08:48:34.723Z,1.80
2018-07-11T08:55:28.819Z,2.13
2018-07-11T08:58:10.475Z,1.73
2018-07-11T09:01:39.731Z,1.60
2018-07-11T09:06:26.695Z,2.00
2018-07-11T09:11:14.187Z,1.77
2018-07-11T09:14:00.864Z,2.53
2018-07-11T09:19:22.290Z,2.03
2018-07-11T09:22:06.421Z,1.67
2018-07-11T09:24:41.667Z,2.10
2018-07-11T09:27:09.947Z,2.03
2018-07-11T09:29:38.531Z,2.12
2018-07-11T09:32:06.305Z,2.47
2018-07-11T09:34:34.057Z,2.90
2018-07-11T09:37:01.786Z,2.07
2018-07-11T09:39:29.562Z,2.57
2018-07-11T09:41:57.323Z,1.90
2018-07-11T09:44:25.353Z,1.90
2018-07-11T09:46:53.939Z,2.40
2018-07-11T09:49:22.125Z,2.23
2018-07-11T09:51:50.042Z,2.60
2018-07-11T09:54:17.902Z,2.53
2018-07-11T09:56:45.898Z,2.40
2018-07-11T09:59:14.570Z,2.12
2018-07-11T10:01:42.413Z,2.42
2018-07-11T10:04:12.319Z,1.90
2018-07-11T10:06:40.182Z,2.45
2018-07-11T10:09:08.166Z,2.20
2018-07-11T10:11:35.890Z,2.37
2018-07-11T10:14:03.646Z,2.52
2018-07-11T10:16:31.936Z,2.42
2018-07-11T10:19:01.811Z,2.50
2018-07-11T10:21:30.313Z,2.45
2018-07-11T10:23:58.107Z,2.95
2018-07-11T10:26:26.013Z,2.95
2018-07-11T10:28:54.102Z,2.60
2018-07-11T10:31:22.094Z,2.87
2018-07-11T10:33:49.973Z,2.58
2018-07-11T10:36:17.710Z,2.65
2018-07-11T10:38:45.497Z,2.87
2018-07-11T10:41:13.492Z,2.85
2018-07-11T10:43:41.543Z,2.58
2018-07-11T10:46:09.347Z,2.52
2018-07-11T10:48:37.425Z,2.58
2018-07-11T10:51:05.389Z,2.37
2018-07-11T10:53:33.444Z,2.27
2018-07-11T10:56:01.302Z,2.92
2018-07-11T10:58:29.064Z,3.10
2018-07-11T11:01:05.700Z,2.80
2018-07-11T11:03:32.521Z,3.40
2018-07-11T11:06:00.344Z,3.17
2018-07-11T11:08:28.650Z,2.50
2018-07-11T11:10:56.420Z,3.33
2018-07-11T11:13:24.682Z,2.60
2018-07-11T11:15:53.088Z,3.20
2018-07-11T11:18:21.671Z,3.10
2018-07-11T11:20:50.909Z,2.87
2018-07-11T11:23:18.881Z,2.87
2018-07-11T11:25:46.681Z,3.40
2018-07-11T11:28:14.389Z,3.07
2018-07-11T11:30:42.142Z,2.80
2018-07-11T11:33:10.130Z,2.90
2018-07-11T11:35:38.614Z,3.10
2018-07-11T11:38:06.589Z,2.90
2018-07-11T11:40:34.342Z,3.70
2018-07-11T11:43:02.199Z,4.07
2018-07-11T11:45:29.924Z,4.03
2018-07-11T11:47:59.525Z,3.20
2018-07-11T11:50:28.010Z,3.77
2018-07-11T11:52:55.854Z,3.67
2018-07-11T11:55:23.647Z,3.80
2018-07-11T11:57:52.090Z,2.97
2018-07-11T12:00:19.920Z,3.40
2018-07-11T12:02:48.018Z,3.60
2018-07-11T12:05:15.900Z,2.93
2018-07-11T12:07:43.641Z,3.20
2018-07-11T12:10:11.447Z,3.20
2018-07-11T12:12:39.172Z,3.47
2018-07-11T12:15:07.109Z,3.47
2018-07-11T12:17:35.110Z,3.80
2018-07-11T12:20:03.331Z,3.77
2018-07-11T12:22:31.474Z,3.63
2018-07-11T12:24:59.635Z,3.50
2018-07-11T12:27:27.507Z,3.33
2018-07-11T12:29:55.531Z,3.40
2018-07-11T12:32:23.253Z,3.20
2018-07-11T12:34:51.049Z,3.57
2018-07-11T12:37:19.566Z,3.47
2018-07-11T12:39:47.689Z,3.67
2018-07-11T12:42:15.617Z,3.17
2018-07-11T12:44:43.742Z,3.60
2018-07-11T12:47:17.298Z,3.27
2018-07-11T12:49:45.036Z,3.17
2018-07-11T12:52:12.808Z,3.97
2018-07-11T12:54:40.595Z,3.27
2018-07-11T12:57:08.769Z,3.73
2018-07-11T12:59:36.577Z,3.20
2018-07-11T13:02:04.320Z,3.20
2018-07-11T13:04:32.039Z,3.63
2018-07-11T13:06:59.765Z,3.40
2018-07-11T13:09:27.493Z,3.67
2018-07-11T13:11:55.206Z,3.23
2018-07-11T13:14:22.899Z,3.50
2018-07-11T13:16:50.649Z,3.00
2018-07-11T13:19:18.481Z,3.40
2018-07-11T13:21:46.452Z,3.47
2018-07-11T13:24:14.139Z,3.43
2018-07-11T13:26:42.063Z,3.33
2018-07-11T13:29:09.958Z,3.03
2018-07-11T13:31:37.716Z,3.73
2018-07-11T13:34:05.552Z,3.37
2018-07-11T13:36:33.311Z,3.30
2018-07-11T13:39:01.062Z,3.70
2018-07-11T13:41:28.827Z,3.50
2018-07-11T13:43:56.585Z,3.60
2018-07-11T13:46:24.408Z,3.50
2018-07-11T13:48:52.050Z,2.90
2018-07-11T13:51:19.792Z,3.60
2018-07-11T13:53:47.502Z,3.50
2018-07-11T13:56:16.059Z,3.40
2018-07-11T13:58:44.651Z,3.50
2018-07-11T14:01:12.357Z,3.17
2018-07-11T14:03:40.139Z,3.52
2018-07-11T14:06:08.052Z,3.00
2018-07-11T14:08:35.801Z,2.80
2018-07-11T14:11:04.089Z,2.87
2018-07-11T14:13:32.179Z,2.90
2018-07-11T14:15:59.883Z,3.00
2018-07-11T14:18:27.718Z,3.25
2018-07-11T14:20:55.684Z,3.50
2018-07-11T14:23:37.015Z,3.52
2018-07-11T14:26:05.379Z,3.47
2018-07-11T14:28:33.552Z,3.00
2018-07-11T14:31:03.107Z,3.20
2018-07-11T14:33:31.561Z,2.85
2018-07-11T14:35:59.791Z,3.70
2018-07-11T14:38:28.437Z,4.30
2018-07-11T14:40:58.582Z,4.20
2018-07-11T14:43:26.759Z,3.55
2018-07-11T14:45:54.459Z,3.33
2018-07-11T14:48:22.398Z,3.50
2018-07-11T14:50:50.155Z,4.30
2018-07-11T14:53:17.873Z,3.63
2018-07-11T14:55:45.654Z,3.33
2018-07-11T14:58:13.430Z,2.52
2018-07-11T15:00:41.361Z,2.98
2018-07-11T15:03:09.059Z,2.90
2018-07-11T15:05:37.123Z,3.00
2018-07-11T15:08:05.123Z,2.75
2018-07-11T15:10:32.935Z,3.00
2018-07-11T15:13:00.729Z,3.42
2018-07-11T15:15:28.925Z,2.62
2018-07-11T15:17:56.894Z,2.70
2018-07-11T15:20:24.667Z,2.70
2018-07-11T15:22:53.303Z,3.10
2018-07-11T15:25:21.040Z,2.70
2018-07-11T15:27:48.851Z,3.03
2018-07-11T15:30:16.595Z,2.77
2018-07-11T15:32:44.884Z,2.90
2018-07-11T15:35:12.640Z,3.07
2018-07-11T15:37:40.342Z,2.40
2018-07-11T15:40:08.080Z,3.00
2018-07-11T15:42:35.845Z,2.53
2018-07-11T15:45:04.037Z,3.23
2018-07-11T15:47:31.905Z,2.80
2018-07-11T15:50:00.854Z,3.03
2018-07-11T15:52:30.852Z,3.53
2018-07-11T15:54:58.992Z,3.13
2018-07-11T15:57:38.254Z,2.97
2018-07-11T16:00:10.621Z,2.70
2018-07-11T16:02:44.528Z,3.67
2018-07-11T16:05:15.673Z,2.90
2018-07-11T16:07:47.737Z,3.20
2018-07-11T16:10:17.483Z,4.57
2018-07-11T16:12:45.238Z,3.20
2018-07-11T16:15:14.481Z,4.50
2018-07-11T16:17:42.239Z,3.43
2018-07-11T16:20:10.026Z,2.80
2018-07-11T16:22:37.778Z,2.60
2018-07-11T16:25:05.851Z,3.23
2018-07-11T16:27:33.645Z,2.47
2018-07-11T16:30:01.363Z,2.87
2018-07-11T16:32:29.324Z,3.50
2018-07-11T16:34:57.056Z,2.90
2018-07-11T16:37:24.895Z,2.70
2018-07-11T16:39:52.786Z,4.10
2018-07-11T16:42:20.716Z,2.87
2018-07-11T16:44:49.437Z,5.63
2018-07-11T16:47:17.214Z,4.10
2018-07-11T16:49:45.044Z,2.80
2018-07-11T16:52:12.889Z,3.00
2018-07-11T16:54:42.344Z,3.63
2018-07-11T16:57:11.885Z,2.90
2018-07-11T17:00:10.812Z,3.00
2018-07-11T17:02:42.802Z,8.47
2018-07-11T17:05:14.043Z,4.00
2018-07-11T17:07:49.767Z,3.30
2018-07-11T17:10:19.718Z,3.10
2018-07-11T17:13:24.613Z,4.07
2018-07-11T17:15:53.178Z,2.90
2018-07-11T17:18:32.395Z,3.33
2018-07-11T17:21:04.801Z,4.60
2018-07-11T17:23:32.631Z,3.50
2018-07-11T17:26:00.363Z,2.87
2018-07-11T17:28:28.130Z,3.00
2018-07-11T17:30:55.910Z,3.77
2018-07-11T17:33:24.132Z,4.33
2018-07-11T17:35:53.179Z,3.03
2018-07-11T17:38:24.539Z,3.17
2018-07-11T17:40:52.290Z,3.10
2018-07-11T17:43:25.046Z,3.10
2018-07-11T17:45:52.878Z,2.90
2018-07-11T17:48:37.526Z,2.93
2018-07-11T17:51:47.346Z,2.83
2018-07-11T17:54:15.283Z,2.97
2018-07-11T17:56:51.638Z,2.90
2018-07-11T17:59:30.478Z,3.27
2018-07-11T18:01:58.652Z,2.63
2018-07-11T18:04:36.314Z,3.00
2018-07-11T18:07:15.258Z,3.00
2018-07-11T18:09:54.665Z,3.10
2018-07-11T18:12:24.454Z,3.03
2018-07-11T18:15:03.744Z,3.17
2018-07-11T18:17:54.483Z,3.20
2018-07-11T18:20:37.557Z,3.30
2018-07-11T18:23:18.467Z,3.13
2018-07-11T18:26:00.766Z,3.10
2018-07-11T18:29:50.183Z,3.87
2018-07-11T18:37:22.926Z,3.57
2018-07-11T18:39:58.076Z,4.00
2018-07-11T18:42:40.649Z,3.73
2018-07-11T18:47:25.046Z,3.90
2018-07-11T18:52:05.534Z,3.00
2018-07-11T18:57:05.986Z,4.53
2018-07-11T19:00:21.305Z,3.40
2018-07-11T19:03:04.602Z,4.37
2018-07-11T19:06:42.763Z,4.47
2018-07-11T19:09:26.339Z,5.07
2018-07-11T19:11:56.392Z,4.63
2018-07-11T19:14:35.239Z,5.80
2018-07-11T19:19:20.837Z,5.30
2018-07-11T19:21:56.289Z,5.83
2018-07-11T19:25:11.677Z,8.03
2018-07-11T19:27:56.461Z,4.27
2018-07-11T19:30:36.018Z,3.77
2018-07-11T19:33:15.558Z,3.57
2018-07-11T19:38:07.533Z,4.00
2018-07-11T19:42:50.006Z,3.80
2018-07-11T19:47:40.011Z,4.10
2018-07-11T19:52:27.338Z,4.20
2018-07-11T19:55:25.483Z,3.87
2018-07-11T19:57:53.178Z,4.10
2018-07-11T20:00:21.043Z,3.77
2018-07-11T20:02:48.988Z,6.17
2018-07-11T20:05:16.729Z,5.97
2018-07-11T20:07:44.955Z,7.40
2018-07-11T20:10:12.687Z,7.40
2018-07-11T20:12:40.500Z,6.60
2018-07-11T20:15:08.329Z,6.73
2018-07-11T20:17:36.090Z,6.60
2018-07-11T20:20:04.157Z,5.90
2018-07-11T20:22:32.339Z,5.80
2018-07-11T20:25:00.282Z,5.70
2018-07-11T20:27:28.136Z,4.90
2018-07-11T20:29:55.923Z,5.93
2018-07-11T20:32:23.659Z,5.93
2018-07-11T20:34:51.361Z,5.10
2018-07-11T20:37:19.367Z,5.70
2018-07-11T20:39:47.250Z,5.00
2018-07-11T20:42:14.962Z,4.87
2018-07-11T20:44:42.727Z,5.17
2018-07-11T20:47:10.496Z,4.73
2018-07-11T20:49:38.233Z,4.20
2018-07-11T20:52:05.996Z,4.93
2018-07-11T20:54:34.064Z,4.90
2018-07-11T20:57:01.785Z,5.70
2018-07-11T20:59:47.461Z,5.17
2018-07-11T21:02:32.626Z,4.67
2018-07-11T21:07:18.899Z,5.17
2018-07-11T21:12:11.487Z,5.30
2018-07-11T21:14:59.898Z,5.37
2018-07-11T21:18:47.019Z,4.97
2018-07-11T21:21:14.816Z,5.00
2018-07-11T21:23:42.525Z,4.87
2018-07-11T21:26:10.231Z,4.97
2018-07-11T21:28:37.947Z,4.80
2018-07-11T21:31:05.678Z,5.23
2018-07-11T21:33:33.453Z,5.23
2018-07-11T21:36:01.128Z,5.23
2018-07-11T21:38:28.835Z,5.23
2018-07-11T21:40:56.583Z,5.07
2018-07-11T21:43:24.327Z,5.33
2018-07-11T21:45:52.151Z,5.20
2018-07-11T21:48:19.905Z,5.17
2018-07-11T21:50:47.694Z,5.13
2018-07-11T21:53:15.822Z,4.70
2018-07-11T21:55:43.537Z,5.00
2018-07-11T21:58:11.355Z,5.00
2018-07-11T22:00:40.098Z,4.90
2018-07-11T22:03:08.895Z,4.90
2018-07-11T22:05:36.858Z,4.77
2018-07-11T22:08:06.430Z,4.63
2018-07-11T22:10:34.934Z,4.20
2018-07-11T22:13:03.037Z,5.20
2018-07-11T22:15:30.767Z,4.50
2018-07-11T22:18:16.083Z,4.87
2018-07-11T22:20:42.425Z,4.43
2018-07-11T22:23:08.805Z,4.43
2018-07-11T22:25:35.111Z,4.30
2018-07-11T22:28:02.474Z,4.37
2018-07-11T22:30:28.794Z,4.60
2018-07-11T22:32:55.537Z,3.63
2018-07-11T22:35:22.023Z,3.73
2018-07-11T22:37:48.441Z,3.83
2018-07-11T22:40:18.610Z,3.80
2018-07-11T22:42:44.946Z,3.80
2018-07-11T22:45:11.277Z,3.80
2018-07-11T22:47:37.621Z,4.00
2018-07-11T22:50:03.955Z,3.40
2018-07-11T22:52:31.341Z,4.03
2018-07-11T22:54:57.660Z,3.90
2018-07-11T22:57:24.012Z,3.90
2018-07-11T22:59:50.733Z,3.40
2018-07-11T23:02:17.239Z,3.77
2018-07-11T23:04:43.542Z,3.70
2018-07-11T23:07:09.864Z,3.80
2018-07-11T23:09:36.200Z,4.23
2018-07-11T23:12:03.463Z,4.00
2018-07-11T23:14:30.482Z,3.90
2018-07-11T23:16:56.830Z,3.80
2018-07-11T23:19:23.210Z,4.50
2018-07-11T23:21:49.574Z,3.57
2018-07-11T23:24:15.895Z,3.67
2018-07-11T23:26:42.221Z,3.50
2018-07-11T23:29:08.547Z,4.27
2018-07-11T23:31:34.909Z,4.00
2018-07-11T23:34:01.238Z,4.30
2018-07-11T23:36:27.586Z,4.33
2018-07-11T23:38:53.922Z,4.37
2018-07-11T23:41:20.243Z,4.43
2018-07-11T23:43:46.587Z,4.63
2018-07-11T23:46:12.913Z,4.70
2018-07-11T23:48:39.241Z,4.40
2018-07-11T23:51:05.566Z,4.30
2018-07-11T23:53:31.918Z,4.80
2018-07-11T23:55:58.243Z,4.53
2018-07-11T23:58:24.559Z,4.50
